Time;durP1;ratioP1;P1;durP2;ratioP2;P2;SDS_P1;SDS_P2;PMS_P1;PMS_P2;Temp;Humidity;BMP_temperature;BMP_pressure;BME280_temperature;BME280_humidity;BME280_pressure;Samples;Min_cycle;Max_cycle;Signal;HPM_P1;HPM_P2
2022/05/16 00:00:03;;;;;;;;;;;21.10;57.80;21.10;99531.00;;;;344511;28;86931;-91
2022/05/16 00:00:24;;;;;;;;;;;21.10;57.80;21.20;99532.00;;;;342553;28;89406;-91
2022/05/16 00:00:37;;;;;;;;;;;21.10;57.90;21.20;99530.00;;;;340262;28;88539;-91
2022/05/16 00:00:49;;;;;;;;;;;21.10;58.10;21.20;99536.00;;;;340618;28;91113;-91
2022/05/16 00:01:01;;;;;;;;;;;21.10;58.20;21.20;99529.00;;;;341872;28;86975;-91
2022/05/16 00:01:13;;;;;;;;;;;21.10;58.10;21.20;99528.00;;;;341730;28;89958;-91
2022/05/16 00:01:26;;;;;;;;;;;21.10;58.00;21.20;99533.00;;;;343149;28;87333;-90
2022/05/16 00:01:38;;;;;;;;;;;21.10;58.10;21.20;99528.00;;;;341916;28;91021;-91
2022/05/16 00:01:50;;;;;;;;;;;21.10;58.20;21.20;99520.00;;;;344398;28;86891;-91
2022/05/16 00:02:03;;;;;;;;;;;21.10;58.20;21.30;99533.00;;;;344749;28;91165;-90
2022/05/16 00:02:15;;;;;;;;;;;21.10;58.20;21.20;99525.00;;;;343184;28;87943;-91
2022/05/16 00:02:27;;;;;;;;;;;21.10;58.10;21.30;99528.00;;;;344667;28;91003;-91
2022/05/16 00:02:39;;;;;;;;;;;21.10;58.20;21.20;99520.00;;;;343096;28;87891;-91
2022/05/16 00:02:51;;;;;;;;;;;21.10;58.20;21.20;99531.00;;;;341965;28;89413;-90
2022/05/16 00:03:04;;;;;;;;;;;21.10;58.30;21.20;99533.00;;;;341763;28;87946;-91
2022/05/16 00:03:16;;;;;;;;;;;21.10;58.40;21.20;99522.00;;;;345852;28;90496;-91
2022/05/16 00:03:29;;;;;;;;;;;21.10;58.30;21.20;99528.00;;;;344225;28;88038;-91
2022/05/16 00:03:40;;;;;;;;;;;21.10;58.30;21.20;99532.00;;;;343292;28;89957;-90
2022/05/16 00:03:52;;;;;;;;;;;21.10;58.30;21.10;99532.00;;;;340366;28;88337;-90
2022/05/16 00:04:04;;;;;;;;;;;21.10;58.30;21.20;99528.00;;;;343362;28;89697;-91
2022/05/16 00:04:16;;;;;;;;;;;21.10;58.30;21.20;99527.00;;;;344519;28;87849;-91
2022/05/16 00:04:28;;;;;;;;;;;21.10;58.30;21.30;99529.00;;;;343403;28;89864;-91
2022/05/16 00:04:41;;;;;;;;;;;21.10;58.40;21.20;99526.00;;;;344471;28;87890;-90
2022/05/16 00:04:53;;;;;;;;;;;21.10;58.80;21.20;99533.00;;;;344576;28;90689;-91
2022/05/16 00:05:05;;;;;;;;;;;21.10;58.30;21.20;99525.00;;;;343228;28;87926;-91
2022/05/16 00:05:17;;;;;;;;;;;21.10;58.40;21.20;99532.00;;;;341909;28;91588;-91
2022/05/16 00:05:30;;;;;;;;;;;21.10;58.50;21.20;99539.00;;;;340381;28;87996;-91
2022/05/16 00:05:42;;;;;;;;;;;21.10;58.50;21.10;99532.00;;;;342027;28;89765;-91
2022/05/16 00:05:54;;;;;;;;;;;21.10;58.60;21.20;99528.00;;;;341644;28;87473;-91
2022/05/16 00:06:05;;;;;;;;;;;21.10;58.50;21.10;99531.00;;;;344804;28;90686;-91
2022/05/16 00:06:17;;;;;;;;;;;21.10;58.50;21.20;99532.00;;;;342831;28;87817;-91
2022/05/16 00:06:29;;;;;;;;;;;21.10;58.30;21.30;99537.00;;;;343254;28;90687;-91
2022/05/16 00:06:41;;;;;;;;;;;21.10;58.30;21.30;99540.00;;;;343055;28;87507;-90
2022/05/16 00:06:52;;;;;;;;;;;21.10;58.30;21.20;99539.00;;;;341971;28;90654;-91
2022/05/16 00:07:04;;;;;;;;;;;21.10;58.30;21.20;99547.00;;;;341737;28;88027;-90
2022/05/16 00:07:17;;;;;;;;;;;21.10;58.30;21.10;99540.00;;;;343266;28;92144;-91
2022/05/16 00:07:28;;;;;;;;;;;21.00;58.20;21.20;99545.00;;;;341599;28;88078;-89
2022/05/16 00:07:40;;;;;;;;;;;21.10;58.30;21.20;99547.00;;;;340653;28;90809;-90
2022/05/16 00:07:53;;;;;;;;;;;21.10;58.30;21.10;99536.00;;;;340211;28;88055;-91
2022/05/16 00:08:05;;;;;;;;;;;21.00;58.20;21.20;99544.00;;;;342090;28;90703;-91
2022/05/16 00:08:17;;;;;;;;;;;21.00;58.20;21.10;99534.00;;;;341814;28;87936;-91
2022/05/16 00:08:29;;;;;;;;;;;21.00;58.20;21.10;99546.00;;;;343380;28;90007;-92
2022/05/16 00:08:41;;;;;;;;;;;21.00;58.20;21.10;99538.00;;;;343226;28;86985;-91
2022/05/16 00:08:55;;;;;;;;;;;21.00;58.20;21.10;99541.00;;;;341897;28;90745;-91
2022/05/16 00:09:07;;;;;;;;;;;21.00;58.20;21.00;99535.00;;;;340201;28;88117;-91
2022/05/16 00:09:18;;;;;;;;;;;21.00;58.20;21.10;99538.00;;;;340435;28;91472;-91
2022/05/16 00:09:30;;;;;;;;;;;21.00;58.20;21.10;99541.00;;;;342336;28;86892;-91
2022/05/16 00:09:42;;;;;;;;;;;21.00;58.50;21.20;99539.00;;;;342029;28;90851;-90
2022/05/16 00:09:54;;;;;;;;;;;21.00;58.40;21.10;99533.00;;;;342968;28;86982;-91
2022/05/16 00:10:07;;;;;;;;;;;21.00;58.40;21.10;99546.00;;;;343417;28;89903;-90
2022/05/16 00:10:19;;;;;;;;;;;21.00;58.50;21.10;99542.00;;;;343156;28;87952;-91
2022/05/16 00:10:30;;;;;;;;;;;21.00;58.30;21.10;99537.00;;;;340648;28;91492;-91
2022/05/16 00:10:42;;;;;;;;;;;21.00;58.20;21.10;99541.00;;;;343182;28;87857;-91
2022/05/16 00:10:55;;;;;;;;;;;21.00;58.10;21.10;99531.00;;;;341957;28;90887;-91
2022/05/16 00:11:07;;;;;;;;;;;21.00;58.20;21.10;99534.00;;;;341703;28;88212;-91
2022/05/16 00:11:19;;;;;;;;;;;21.00;58.30;21.10;99535.00;;;;343169;28;90522;-91
2022/05/16 00:11:31;;;;;;;;;;;21.00;58.40;21.10;99532.00;;;;343130;28;88173;-91
2022/05/16 00:11:43;;;;;;;;;;;21.00;58.40;21.10;99531.00;;;;343359;28;89778;-90
2022/05/16 00:11:54;;;;;;;;;;;21.00;58.50;21.10;99532.00;;;;344438;28;87960;-91
2022/05/16 00:12:07;;;;;;;;;;;21.00;58.50;21.10;99528.00;;;;343437;28;89562;-90
2022/05/16 00:12:19;;;;;;;;;;;21.00;58.60;21.10;99530.00;;;;342467;28;87966;-91
2022/05/16 00:12:31;;;;;;;;;;;21.00;58.40;21.10;99537.00;;;;343430;28;89599;-91
2022/05/16 00:12:43;;;;;;;;;;;21.00;58.40;21.10;99527.00;;;;344382;28;86610;-91
2022/05/16 00:12:55;;;;;;;;;;;21.00;58.50;21.00;99531.00;;;;343221;28;90939;-91
2022/05/16 00:13:06;;;;;;;;;;;21.00;58.50;21.00;99538.00;;;;340448;28;88213;-90
2022/05/16 00:13:20;;;;;;;;;;;21.00;58.50;21.00;99540.00;;;;343305;28;91128;-91
2022/05/16 00:13:32;;;;;;;;;;;21.00;58.50;21.10;99542.00;;;;343216;28;87111;-91
2022/05/16 00:13:44;;;;;;;;;;;21.00;58.60;21.00;99534.00;;;;344787;28;88394;-91
2022/05/16 00:13:56;;;;;;;;;;;21.00;58.80;21.00;99535.00;;;;344251;28;88438;-91
2022/05/16 00:14:08;;;;;;;;;;;20.90;58.80;21.10;99535.00;;;;346158;28;90524;-90
2022/05/16 00:14:20;;;;;;;;;;;20.90;58.90;21.00;99538.00;;;;345691;28;87001;-90
2022/05/16 00:14:32;;;;;;;;;;;20.90;58.90;21.00;99534.00;;;;344734;28;90422;-91
2022/05/16 00:14:44;;;;;;;;;;;20.90;58.70;21.00;99530.00;;;;344566;28;86875;-91
2022/05/16 00:14:56;;;;;;;;;;;20.90;58.60;21.10;99530.00;;;;346100;28;90820;-90
2022/05/16 00:15:09;;;;;;;;;;;20.90;58.60;21.10;99528.00;;;;341654;28;88033;-90
2022/05/16 00:15:21;;;;;;;;;;;20.90;58.80;21.20;99538.00;;;;343208;28;91465;-90
2022/05/16 00:15:34;;;;;;;;;;;20.90;59.40;21.10;99541.00;;;;343136;28;87980;-91
2022/05/16 00:15:46;;;;;;;;;;;20.90;58.80;21.00;99536.00;;;;341882;28;91087;-91
2022/05/16 00:16:00;;;;;;;;;;;20.90;58.80;21.00;99538.00;;;;341634;28;87812;-91
2022/05/16 00:16:12;;;;;;;;;;;20.90;58.80;21.00;99538.00;;;;344735;28;90957;-91
2022/05/16 00:16:24;;;;;;;;;;;20.90;58.90;21.00;99534.00;;;;344599;28;87510;-91
2022/05/16 00:16:36;;;;;;;;;;;20.90;59.40;21.00;99536.00;;;;343310;28;91075;-91
2022/05/16 00:16:48;;;;;;;;;;;20.90;58.80;21.00;99540.00;;;;343062;28;87844;-91
2022/05/16 00:17:00;;;;;;;;;;;20.90;58.70;21.00;99528.00;;;;346134;28;89345;-91
2022/05/16 00:17:12;;;;;;;;;;;20.90;58.60;20.90;99536.00;;;;344327;28;87974;-91
2022/05/16 00:17:24;;;;;;;;;;;20.90;58.70;20.90;99540.00;;;;342008;28;88208;-91
2022/05/16 00:17:36;;;;;;;;;;;20.90;58.70;20.90;99539.00;;;;344537;28;87987;-91
2022/05/16 00:17:48;;;;;;;;;;;20.90;58.70;20.90;99535.00;;;;343321;28;90595;-90
2022/05/16 00:18:00;;;;;;;;;;;20.90;58.80;21.00;99531.00;;;;341715;28;87728;-91
2022/05/16 00:18:12;;;;;;;;;;;20.80;58.90;21.00;99528.00;;;;341741;28;90715;-91
2022/05/16 00:18:24;;;;;;;;;;;20.90;58.80;21.00;99538.00;;;;340414;28;88201;-91
2022/05/16 00:18:36;;;;;;;;;;;20.90;58.90;21.00;99537.00;;;;344601;28;90942;-91
2022/05/16 00:18:47;;;;;;;;;;;20.90;59.00;21.10;99535.00;;;;343869;28;87009;-91
2022/05/16 00:18:59;;;;;;;;;;;20.80;59.10;21.00;99533.00;;;;341932;28;90577;-91
2022/05/16 00:19:11;;;;;;;;;;;20.90;59.10;20.90;99540.00;;;;342995;28;87106;-91
2022/05/16 00:19:23;;;;;;;;;;;20.80;58.90;21.00;99537.00;;;;341892;28;91712;-91
2022/05/16 00:19:35;;;;;;;;;;;20.90;59.00;21.00;99530.00;;;;344542;28;87840;-91
2022/05/16 00:19:46;;;;;;;;;;;20.80;58.90;21.00;99537.00;;;;344743;28;90584;-90
2022/05/16 00:19:58;;;;;;;;;;;20.80;58.80;21.00;99540.00;;;;344455;28;87016;-90
2022/05/16 00:20:10;;;;;;;;;;;20.80;58.60;20.90;99532.00;;;;343412;28;90752;-91
2022/05/16 00:20:22;;;;;;;;;;;20.80;58.40;20.90;99538.00;;;;344529;28;88316;-91
2022/05/16 00:20:34;;;;;;;;;;;20.80;58.30;21.00;99534.00;;;;343284;28;90398;-91
2022/05/16 00:20:46;;;;;;;;;;;20.80;58.40;20.90;99538.00;;;;343150;28;87934;-91
2022/05/16 00:20:58;;;;;;;;;;;20.80;58.60;20.90;99543.00;;;;343359;28;91341;-91
2022/05/16 00:21:10;;;;;;;;;;;20.80;58.60;21.00;99536.00;;;;341494;28;88138;-90
2022/05/16 00:21:22;;;;;;;;;;;20.80;58.70;20.90;99547.00;;;;344727;28;91098;-91
2022/05/16 00:21:34;;;;;;;;;;;20.80;59.30;20.90;99545.00;;;;342735;28;88496;-91
2022/05/16 00:21:46;;;;;;;;;;;20.80;58.60;20.90;99553.00;;;;344762;28;88501;-91
2022/05/16 00:21:58;;;;;;;;;;;20.80;58.50;20.90;99544.00;;;;343166;28;87553;-91
2022/05/16 00:22:10;;;;;;;;;;;20.80;58.40;20.90;99543.00;;;;341953;28;90858;-90
2022/05/16 00:22:24;;;;;;;;;;;20.80;58.40;20.90;99547.00;;;;343165;28;87704;-91
2022/05/16 00:22:35;;;;;;;;;;;20.80;58.50;20.90;99547.00;;;;344603;28;89741;-91
2022/05/16 00:22:47;;;;;;;;;;;20.80;58.30;20.90;99552.00;;;;340521;28;86769;-91
2022/05/16 00:22:59;;;;;;;;;;;20.80;58.30;20.90;99552.00;;;;342026;28;89850;-91
2022/05/16 00:23:11;;;;;;;;;;;20.80;58.40;21.00;99545.00;;;;342960;28;88574;-91
2022/05/16 00:23:23;;;;;;;;;;;20.80;58.50;20.90;99543.00;;;;343400;28;90649;-90
2022/05/16 00:23:35;;;;;;;;;;;20.80;58.60;20.90;99550.00;;;;344522;28;87290;-91
2022/05/16 00:23:47;;;;;;;;;;;20.80;58.50;20.90;99550.00;;;;343357;28;90519;-91
2022/05/16 00:23:58;;;;;;;;;;;20.80;58.40;20.90;99553.00;;;;343109;28;87994;-91
2022/05/16 00:24:10;;;;;;;;;;;20.80;58.40;20.90;99547.00;;;;341713;28;91150;-92
2022/05/16 00:24:26;;;;;;;;;;;20.80;58.40;20.90;99550.00;;;;343219;28;87649;-91
2022/05/16 00:24:41;;;;;;;;;;;20.80;58.40;20.90;99561.00;;;;343292;28;90890;-90
2022/05/16 00:24:53;;;;;;;;;;;20.80;58.50;20.90;99551.00;;;;343075;28;87840;-91
2022/05/16 00:25:07;;;;;;;;;;;20.80;58.50;20.90;99550.00;;;;342025;28;89911;-91
2022/05/16 00:25:19;;;;;;;;;;;20.80;58.40;20.90;99560.00;;;;341818;28;87894;-91
2022/05/16 00:25:31;;;;;;;;;;;20.80;58.40;20.90;99560.00;;;;341986;28;91283;-91
2022/05/16 00:25:43;;;;;;;;;;;20.80;59.10;20.90;99567.00;;;;340419;28;88049;-88
2022/05/16 00:25:55;;;;;;;;;;;20.80;58.60;20.90;99564.00;;;;344670;28;89661;-91
2022/05/16 00:26:07;;;;;;;;;;;20.80;58.60;20.90;99561.00;;;;344451;28;86754;-91
2022/05/16 00:26:19;;;;;;;;;;;20.80;58.60;20.80;99562.00;;;;344687;28;87080;-91
2022/05/16 00:26:31;;;;;;;;;;;20.80;58.60;20.80;99560.00;;;;343034;28;87963;-91
2022/05/16 00:26:43;;;;;;;;;;;20.70;58.60;20.80;99554.00;;;;343385;28;89147;-90
2022/05/16 00:26:55;;;;;;;;;;;20.80;58.50;20.80;99566.00;;;;347235;28;88014;-91
2022/05/16 00:27:07;;;;;;;;;;;20.70;58.50;20.80;99567.00;;;;343347;28;90580;-90
2022/05/16 00:27:20;;;;;;;;;;;20.70;58.50;20.80;99566.00;;;;344378;28;88107;-91
2022/05/16 00:27:34;;;;;;;;;;;20.70;58.50;20.80;99569.00;;;;344636;28;91762;-90
2022/05/16 00:27:46;;;;;;;;;;;20.70;58.60;20.80;99564.00;;;;345892;28;87246;-91
2022/05/16 00:27:58;;;;;;;;;;;20.70;58.70;20.80;99573.00;;;;344645;28;89477;-91
2022/05/16 00:28:09;;;;;;;;;;;20.70;58.70;20.80;99571.00;;;;340383;28;86926;-91
2022/05/16 00:28:21;;;;;;;;;;;20.70;58.70;20.80;99563.00;;;;342960;28;89565;-91
2022/05/16 00:28:33;;;;;;;;;;;20.70;59.30;20.80;99562.00;;;;342978;28;86925;-90
2022/05/16 00:28:45;;;;;;;;;;;20.70;59.10;20.80;99572.00;;;;341996;28;90777;-90
2022/05/16 00:28:57;;;;;;;;;;;20.70;59.10;20.80;99568.00;;;;341670;28;87706;-90
2022/05/16 00:29:09;;;;;;;;;;;20.70;58.90;20.80;99565.00;;;;343134;28;91043;-90
2022/05/16 00:29:21;;;;;;;;;;;20.70;58.90;20.80;99571.00;;;;341671;28;87955;-91
2022/05/16 00:29:33;;;;;;;;;;;20.70;58.80;20.70;99570.00;;;;342099;28;89020;-91
2022/05/16 00:29:45;;;;;;;;;;;20.70;58.80;20.80;99575.00;;;;340436;28;86894;-91
2022/05/16 00:29:56;;;;;;;;;;;20.70;58.80;20.70;99575.00;;;;340458;28;91308;-91
2022/05/16 00:30:11;;;;;;;;;;;20.70;58.80;20.80;99576.00;;;;343141;28;87012;-91
2022/05/16 00:30:23;;;;;;;;;;;20.70;58.90;20.80;99574.00;;;;343818;28;90624;-91
2022/05/16 00:30:34;;;;;;;;;;;20.70;58.80;20.80;99576.00;;;;340282;28;87799;-91
2022/05/16 00:30:46;;;;;;;;;;;20.70;59.00;20.80;99576.00;;;;341846;28;91585;-91
2022/05/16 00:30:58;;;;;;;;;;;20.70;59.00;20.80;99580.00;;;;343127;28;87203;-90
2022/05/16 00:31:10;;;;;;;;;;;20.70;59.10;20.80;99576.00;;;;341823;28;90727;-91
2022/05/16 00:31:22;;;;;;;;;;;20.70;59.20;20.70;99576.00;;;;341778;28;87674;-91
2022/05/16 00:31:34;;;;;;;;;;;20.70;58.90;20.70;99569.00;;;;341861;28;90066;-90
2022/05/16 00:31:46;;;;;;;;;;;20.70;58.90;20.80;99582.00;;;;343054;28;87726;-91
2022/05/16 00:31:58;;;;;;;;;;;20.70;58.90;20.80;99583.00;;;;344624;28;90618;-91
2022/05/16 00:32:10;;;;;;;;;;;20.70;59.00;20.80;99579.00;;;;344448;28;87289;-90
2022/05/16 00:32:23;;;;;;;;;;;20.70;59.10;20.80;99577.00;;;;343471;28;89189;-91
2022/05/16 00:32:35;;;;;;;;;;;20.70;59.30;20.80;99577.00;;;;345775;28;87704;-91
2022/05/16 00:32:50;;;;;;;;;;;20.70;59.30;20.80;99579.00;;;;342136;28;89218;-91
2022/05/16 00:33:01;;;;;;;;;;;20.70;59.30;20.80;99575.00;;;;344435;28;86830;-91
2022/05/16 00:33:14;;;;;;;;;;;20.70;59.20;20.70;99586.00;;;;342889;28;89335;-90
2022/05/16 00:33:26;;;;;;;;;;;20.70;59.20;20.70;99578.00;;;;344209;28;87980;-90
2022/05/16 00:33:37;;;;;;;;;;;20.70;59.30;20.70;99579.00;;;;345912;28;89656;-91
2022/05/16 00:33:49;;;;;;;;;;;20.70;59.20;20.70;99591.00;;;;345375;28;87797;-90
2022/05/16 00:34:01;;;;;;;;;;;20.60;59.10;20.70;99588.00;;;;344617;28;89440;-90
2022/05/16 00:34:13;;;;;;;;;;;20.60;59.00;20.70;99593.00;;;;344501;28;86945;-91
2022/05/16 00:34:25;;;;;;;;;;;20.60;59.10;20.70;99591.00;;;;342065;28;90251;-91
2022/05/16 00:34:37;;;;;;;;;;;20.60;59.10;20.70;99587.00;;;;345954;28;86954;-91
2022/05/16 00:34:49;;;;;;;;;;;20.60;59.20;20.70;99591.00;;;;346178;28;90863;-91
2022/05/16 00:35:01;;;;;;;;;;;20.60;59.20;20.70;99593.00;;;;343032;28;87357;-91
2022/05/16 00:35:13;;;;;;;;;;;20.60;59.30;20.70;99600.00;;;;347413;28;91069;-90
2022/05/16 00:35:26;;;;;;;;;;;20.60;59.30;20.70;99588.00;;;;347386;28;87690;-91
2022/05/16 00:35:37;;;;;;;;;;;20.60;59.40;20.80;99593.00;;;;342033;28;90498;-91
2022/05/16 00:35:49;;;;;;;;;;;20.60;59.40;20.80;99592.00;;;;341792;28;86618;-91
2022/05/16 00:36:01;;;;;;;;;;;20.60;59.30;20.80;99601.00;;;;342002;28;89879;-91
2022/05/16 00:36:13;;;;;;;;;;;20.60;59.40;20.80;99593.00;;;;344074;28;86884;-91
2022/05/16 00:36:24;;;;;;;;;;;20.60;59.20;20.80;99592.00;;;;342201;28;90800;-91
2022/05/16 00:36:36;;;;;;;;;;;20.60;59.20;20.80;99592.00;;;;344442;28;87152;-91
2022/05/16 00:36:48;;;;;;;;;;;20.60;59.20;20.70;99595.00;;;;341852;28;90013;-91
2022/05/16 00:37:00;;;;;;;;;;;20.60;59.10;20.70;99596.00;;;;344359;28;86935;-90
2022/05/16 00:37:12;;;;;;;;;;;20.60;59.10;20.70;99593.00;;;;344590;28;90695;-91
2022/05/16 00:37:24;;;;;;;;;;;20.60;59.10;20.70;99596.00;;;;343113;28;87116;-91
2022/05/16 00:37:35;;;;;;;;;;;20.60;59.20;20.70;99591.00;;;;343231;28;92063;-90
2022/05/16 00:37:47;;;;;;;;;;;20.60;59.30;20.70;99592.00;;;;344485;28;88456;-90
2022/05/16 00:37:59;;;;;;;;;;;20.60;59.30;20.80;99598.00;;;;340693;28;89704;-91
2022/05/16 00:38:11;;;;;;;;;;;20.60;59.30;20.70;99595.00;;;;343038;28;88343;-91
2022/05/16 00:38:23;;;;;;;;;;;20.60;59.40;20.70;99593.00;;;;341961;28;90572;-91
2022/05/16 00:38:35;;;;;;;;;;;20.60;59.40;20.70;99588.00;;;;341729;28;86952;-91
2022/05/16 00:38:46;;;;;;;;;;;20.60;59.30;20.80;99597.00;;;;340534;28;89268;-91
2022/05/16 00:38:58;;;;;;;;;;;20.60;59.30;20.70;99599.00;;;;341644;28;88780;-91
2022/05/16 00:39:10;;;;;;;;;;;20.60;59.40;20.70;99596.00;;;;344666;28;90210;-90
2022/05/16 00:39:22;;;;;;;;;;;20.60;59.50;20.70;99599.00;;;;345731;28;87992;-91
2022/05/16 00:39:34;;;;;;;;;;;20.60;59.50;20.80;99593.00;;;;344729;28;90467;-91
2022/05/16 00:39:45;;;;;;;;;;;20.60;59.50;20.80;99595.00;;;;343074;28;88348;-90
2022/05/16 00:39:57;;;;;;;;;;;20.60;59.40;20.80;99595.00;;;;341952;28;89745;-90
2022/05/16 00:40:11;;;;;;;;;;;20.60;59.40;20.80;99591.00;;;;346970;28;86913;-90
2022/05/16 00:40:22;;;;;;;;;;;20.60;59.40;20.80;99588.00;;;;344664;28;90506;-91
2022/05/16 00:40:34;;;;;;;;;;;20.60;59.40;20.80;99599.00;;;;345750;28;86929;-91
2022/05/16 00:40:46;;;;;;;;;;;20.60;59.40;20.80;99595.00;;;;343346;28;89736;-91
2022/05/16 00:40:58;;;;;;;;;;;20.60;59.80;20.70;99598.00;;;;343150;28;86889;-91
2022/05/16 00:41:10;;;;;;;;;;;20.60;59.70;20.70;99593.00;;;;345984;28;90883;-91
2022/05/16 00:41:22;;;;;;;;;;;20.60;59.70;20.70;99595.00;;;;347133;28;87954;-90
2022/05/16 00:41:34;;;;;;;;;;;20.60;59.60;20.80;99598.00;;;;343463;28;89033;-91
2022/05/16 00:41:46;;;;;;;;;;;20.60;59.50;20.80;99597.00;;;;345739;28;88082;-91
2022/05/16 00:41:57;;;;;;;;;;;20.60;59.60;20.80;99589.00;;;;344744;28;90640;-91
2022/05/16 00:42:12;;;;;;;;;;;20.60;59.60;20.70;99600.00;;;;343114;28;87990;-91
2022/05/16 00:42:24;;;;;;;;;;;20.60;59.60;20.80;99598.00;;;;344750;28;90019;-90
2022/05/16 00:42:36;;;;;;;;;;;20.60;59.70;20.80;99592.00;;;;341540;28;86685;-90
2022/05/16 00:42:48;;;;;;;;;;;20.60;59.80;20.70;99602.00;;;;344747;28;90570;-91
2022/05/16 00:43:04;;;;;;;;;;;20.60;59.70;20.70;99598.00;;;;343168;28;87911;-91
2022/05/16 00:43:22;;;;;;;;;;;20.60;59.70;20.70;99595.00;;;;343574;28;89648;-91
2022/05/16 00:43:48;;;;;;;;;;;20.60;59.70;20.70;99600.00;;;;344459;28;87992;-91
2022/05/16 00:43:59;;;;;;;;;;;20.60;59.70;20.60;99597.00;;;;346102;28;91979;-91
2022/05/16 00:44:12;;;;;;;;;;;20.60;59.70;20.70;99605.00;;;;343012;28;87947;-91
2022/05/16 00:44:24;;;;;;;;;;;20.60;59.70;20.70;99582.00;;;;343436;28;89808;-91
2022/05/16 00:44:36;;;;;;;;;;;20.50;59.70;20.60;99595.00;;;;344522;28;86995;-91
2022/05/16 00:44:48;;;;;;;;;;;20.50;59.80;20.70;99596.00;;;;346064;28;90129;-91
2022/05/16 00:44:59;;;;;;;;;;;20.60;59.80;20.60;99598.00;;;;343095;28;87834;-91
2022/05/16 00:45:13;;;;;;;;;;;20.50;59.80;20.70;99602.00;;;;345823;28;89453;-91
2022/05/16 00:45:26;;;;;;;;;;;20.50;59.80;20.70;99592.00;;;;345826;28;87668;-91
2022/05/16 00:45:38;;;;;;;;;;;20.50;59.70;20.70;99604.00;;;;344717;28;90945;-91
2022/05/16 00:45:50;;;;;;;;;;;20.50;59.70;20.70;99608.00;;;;343972;28;87983;-91
2022/05/16 00:46:02;;;;;;;;;;;20.50;59.70;20.60;99597.00;;;;347432;28;91812;-91
2022/05/16 00:46:15;;;;;;;;;;;20.60;59.80;20.60;99597.00;;;;344211;28;87855;-91
2022/05/16 00:46:31;;;;;;;;;;;20.50;59.70;20.70;99597.00;;;;343217;28;91240;-91
2022/05/16 00:46:43;;;;;;;;;;;20.50;59.70;20.70;99595.00;;;;344447;28;87340;-90
2022/05/16 00:46:55;;;;;;;;;;;20.50;59.70;20.60;99592.00;;;;340628;28;90353;-91
2022/05/16 00:47:07;;;;;;;;;;;20.50;59.60;20.70;99592.00;;;;342990;28;88099;-91
2022/05/16 00:47:19;;;;;;;;;;;20.50;59.70;20.70;99599.00;;;;341971;28;90254;-91
2022/05/16 00:47:31;;;;;;;;;;;20.50;59.90;20.70;99593.00;;;;341664;28;88139;-91
2022/05/16 00:47:42;;;;;;;;;;;20.50;59.70;20.70;99608.00;;;;346015;28;90881;-91
2022/05/16 00:47:54;;;;;;;;;;;20.50;59.70;20.70;99597.00;;;;345757;28;88066;-91
2022/05/16 00:48:06;;;;;;;;;;;20.50;60.00;20.70;99604.00;;;;344747;28;89247;-91
2022/05/16 00:48:18;;;;;;;;;;;20.50;60.00;20.60;99596.00;;;;345538;28;87048;-90
2022/05/16 00:48:30;;;;;;;;;;;20.50;60.00;20.70;99598.00;;;;343316;28;90227;-91
2022/05/16 00:48:42;;;;;;;;;;;20.50;59.90;20.70;99603.00;;;;340462;28;86775;-91
2022/05/16 00:48:53;;;;;;;;;;;20.50;59.90;20.60;99606.00;;;;343332;28;90769;-91
2022/05/16 00:49:09;;;;;;;;;;;20.50;59.90;20.70;99594.00;;;;343169;28;86885;-91
2022/05/16 00:49:28;;;;;;;;;;;20.50;59.90;20.70;99609.00;;;;344068;28;90066;-91
2022/05/16 00:49:45;;;;;;;;;;;20.50;60.00;20.60;99599.00;;;;341714;28;88083;-91
2022/05/16 00:49:56;;;;;;;;;;;20.50;60.00;20.70;99610.00;;;;343085;28;89822;-91
2022/05/16 00:50:09;;;;;;;;;;;20.50;60.00;20.70;99598.00;;;;344586;28;86985;-90
2022/05/16 00:50:21;;;;;;;;;;;20.50;60.00;20.70;99599.00;;;;344643;28;90929;-90
2022/05/16 00:50:38;;;;;;;;;;;20.50;60.00;20.60;99601.00;;;;343000;28;88283;-91
2022/05/16 00:50:50;;;;;;;;;;;20.50;60.10;20.60;99595.00;;;;344725;28;91035;-91
2022/05/16 00:51:02;;;;;;;;;;;20.50;60.00;20.60;99600.00;;;;344375;28;88613;-91
2022/05/16 00:51:36;;;;;;;;;;;20.50;60.10;20.70;99611.00;;;;343177;28;89901;-91
2022/05/16 00:52:20;;;;;;;;;;;20.50;60.00;20.70;99604.00;;;;344340;28;88115;-91
2022/05/16 00:52:40;;;;;;;;;;;20.50;60.20;20.70;99604.00;;;;341688;28;90850;-91
2022/05/16 00:52:51;;;;;;;;;;;20.50;60.10;20.60;99594.00;;;;341665;28;87822;-91
2022/05/16 00:53:03;;;;;;;;;;;20.50;60.20;20.60;99597.00;;;;341965;28;87252;-91
2022/05/16 00:53:15;;;;;;;;;;;20.50;60.40;20.60;99596.00;;;;338761;28;87127;-91
2022/05/16 00:53:27;;;;;;;;;;;20.50;60.30;20.60;99598.00;;;;339079;28;89766;-90
2022/05/16 00:53:38;;;;;;;;;;;20.50;60.40;20.60;99594.00;;;;341692;28;87652;-91
2022/05/16 00:53:53;;;;;;;;;;;20.50;60.40;20.60;99597.00;;;;343277;28;89559;-91
2022/05/16 00:54:12;;;;;;;;;;;20.50;60.50;20.50;99600.00;;;;343069;28;86790;-91
2022/05/16 00:54:27;;;;;;;;;;;20.50;60.60;20.60;99599.00;;;;339196;28;91760;-90
2022/05/16 00:54:42;;;;;;;;;;;20.50;60.50;20.60;99608.00;;;;340321;28;87162;-91
2022/05/16 00:54:56;;;;;;;;;;;20.50;60.60;20.60;99609.00;;;;343337;28;88492;-91
2022/05/16 00:55:13;;;;;;;;;;;20.50;60.60;20.50;99610.00;;;;341652;28;88360;-91
2022/05/16 00:55:28;;;;;;;;;;;20.40;60.50;20.50;99614.00;;;;339057;28;90886;-91
2022/05/16 00:55:42;;;;;;;;;;;20.50;60.70;20.40;99613.00;;;;341704;28;87824;-91
2022/05/16 00:55:54;;;;;;;;;;;20.50;60.50;20.40;99609.00;;;;340384;28;91983;-91
2022/05/16 00:56:06;;;;;;;;;;;20.40;60.60;20.40;99615.00;;;;341710;28;87568;-91
2022/05/16 00:56:18;;;;;;;;;;;20.40;60.50;20.50;99620.00;;;;341935;28;89659;-91
2022/05/16 00:56:29;;;;;;;;;;;20.40;60.50;20.50;99616.00;;;;338906;28;88171;-91
2022/05/16 00:56:41;;;;;;;;;;;20.40;60.70;20.50;99614.00;;;;340604;28;90987;-90
2022/05/16 00:56:57;;;;;;;;;;;20.40;60.90;20.50;99616.00;;;;340447;28;87128;-90
2022/05/16 00:57:12;;;;;;;;;;;20.40;61.00;20.40;99616.00;;;;337986;28;88160;-90
2022/05/16 00:57:31;;;;;;;;;;;20.40;60.80;20.40;99618.00;;;;338956;28;87996;-91
2022/05/16 00:57:53;;;;;;;;;;;20.40;60.70;20.50;99615.00;;;;339291;28;89511;-91
2022/05/16 00:58:08;;;;;;;;;;;20.40;60.90;20.60;99617.00;;;;341685;28;87826;-91
2022/05/16 00:58:20;;;;;;;;;;;20.40;60.90;20.50;99610.00;;;;339917;28;90852;-91
2022/05/16 00:58:32;;;;;;;;;;;20.40;61.10;20.40;99612.00;;;;340284;28;88246;-90
2022/05/16 00:58:44;;;;;;;;;;;20.40;61.10;20.50;99609.00;;;;343197;28;90571;-91
2022/05/16 00:58:55;;;;;;;;;;;20.40;61.10;20.50;99613.00;;;;343110;28;86859;-91
2022/05/16 00:59:07;;;;;;;;;;;20.40;61.00;20.40;99607.00;;;;340523;28;89475;-90
2022/05/16 00:59:19;;;;;;;;;;;20.40;61.00;20.40;99610.00;;;;341551;28;87966;-91
2022/05/16 00:59:53;;;;;;;;;;;20.30;60.90;20.40;99603.00;;;;343267;28;90957;-91
2022/05/16 01:00:23;;;;;;;;;;;20.30;61.00;20.40;99608.00;;;;341707;28;86808;-90
2022/05/16 01:00:36;;;;;;;;;;;20.30;61.20;20.40;99600.00;;;;340433;28;90696;-91
2022/05/16 01:00:48;;;;;;;;;;;20.30;61.20;20.40;99604.00;;;;343038;28;87087;-90
2022/05/16 01:01:00;;;;;;;;;;;20.30;61.20;20.40;99604.00;;;;343256;28;92300;-90
2022/05/16 01:04:55;;;;;;;;;;;20.30;61.70;20.30;99616.00;;;;341915;28;90930;-91
2022/05/16 01:05:07;;;;;;;;;;;20.30;61.70;20.30;99617.00;;;;337671;28;87814;-91
2022/05/16 01:05:19;;;;;;;;;;;20.30;61.80;20.30;99608.00;;;;340544;28;91868;-91
2022/05/16 01:05:31;;;;;;;;;;;20.30;61.80;20.40;99601.00;;;;340365;28;86850;-91
2022/05/16 01:05:43;;;;;;;;;;;20.20;61.60;20.40;99618.00;;;;339204;28;90176;-91
2022/05/16 01:05:55;;;;;;;;;;;20.30;61.90;20.30;99618.00;;;;340274;28;88151;-91
2022/05/16 01:06:07;;;;;;;;;;;20.20;61.90;20.40;99620.00;;;;341954;28;89776;-91
2022/05/16 01:06:19;;;;;;;;;;;20.20;61.90;20.30;99610.00;;;;338764;28;87258;-91
2022/05/16 01:06:30;;;;;;;;;;;20.20;62.00;20.40;99611.00;;;;340507;28;89555;-91
2022/05/16 01:06:42;;;;;;;;;;;20.20;62.00;20.40;99611.00;;;;342950;28;87020;-91
2022/05/16 01:06:55;;;;;;;;;;;20.30;62.00;20.40;99614.00;;;;343094;28;91395;-91